Time;durP1;ratioP1;P1;durP2;ratioP2;P2;SDS_P1;SDS_P2;PMS_P1;PMS_P2;Temp;Humidity;BMP_temperature;BMP_pressure;BME280_temperature;BME280_humidity;BME280_pressure;Samples;Min_cycle;Max_cycle;Signal;HPM_P1;HPM_P2
2022/08/31 00:05:16;;;;;;;0.10;0.10;;;15.80;99.50;;;;;;5005541;28;20464;-78
2022/08/31 00:07:42;;;;;;;0.15;0.10;;;15.80;99.30;;;;;;5033479;28;20045;-78
2022/08/31 00:10:17;;;;;;;0.10;0.10;;;15.70;99.60;;;;;;5033431;28;20041;-78
2022/08/31 00:12:45;;;;;;;0.65;0.30;;;15.70;99.60;;;;;;5033408;28;20056;-78
2022/08/31 00:15:15;;;;;;;0.28;0.10;;;15.60;99.70;;;;;;5033454;28;20037;-78
2022/08/31 00:17:41;;;;;;;0.00;0.00;;;15.60;99.50;;;;;;5016560;28;20508;-73
2022/08/31 00:20:10;;;;;;;0.00;0.00;;;15.50;99.70;;;;;;5033263;28;20400;-73
2022/08/31 00:22:35;;;;;;;0.10;0.10;;;15.50;99.80;;;;;;5032898;28;20052;-73
2022/08/31 00:25:02;;;;;;;0.10;0.10;;;15.40;99.80;;;;;;5032986;28;20040;-78
2022/08/31 00:27:28;;;;;;;0.15;0.10;;;15.40;99.90;;;;;;5017195;28;20040;-72
2022/08/31 00:29:53;;;;;;;0.25;0.10;;;15.40;99.90;;;;;;5016734;28;20118;-73
2022/08/31 00:32:19;;;;;;;0.00;0.00;;;15.30;99.90;;;;;;5032919;28;20053;-73
2022/08/31 00:34:45;;;;;;;0.10;0.10;;;15.30;99.90;;;;;;5032896;28;20095;-73
2022/08/31 00:37:10;;;;;;;0.20;0.10;;;15.30;99.90;;;;;;5016654;28;20048;-79
2022/08/31 00:39:36;;;;;;;0.20;0.20;;;15.30;99.90;;;;;;5033500;28;20041;-74
2022/08/31 00:42:05;;;;;;;0.30;0.20;;;15.20;99.90;;;;;;5016749;28;20080;-73
2022/08/31 00:44:30;;;;;;;0.20;0.15;;;15.20;99.90;;;;;;5032569;28;20037;-73
2022/08/31 00:46:56;;;;;;;0.10;0.10;;;15.20;99.90;;;;;;5016607;28;20041;-73
2022/08/31 00:49:31;;;;;;;0.25;0.10;;;15.10;99.90;;;;;;5016841;28;20527;-79
2022/08/31 00:52:02;;;;;;;0.15;0.15;;;15.10;99.90;;;;;;5033358;28;20056;-79
2022/08/31 00:55:05;;;;;;;0.10;0.10;;;15.00;99.90;;;;;;5016687;28;20041;-79
2022/08/31 00:57:34;;;;;;;0.10;0.10;;;14.90;99.90;;;;;;5029702;28;20132;-73
2022/08/31 01:00:04;;;;;;;0.00;0.00;;;14.90;99.90;;;;;;5032960;28;20118;-73
2022/08/31 01:02:32;;;;;;;0.08;0.08;;;14.90;99.90;;;;;;5033042;28;20044;-73
2022/08/31 01:04:57;;;;;;;0.00;0.00;;;14.80;99.90;;;;;;5032536;28;20123;-73
2022/08/31 01:07:24;;;;;;;0.32;0.10;;;14.80;99.90;;;;;;5032427;28;20139;-73
2022/08/31 01:09:50;;;;;;;0.13;0.10;;;14.80;99.90;;;;;;5032836;28;20052;-79
2022/08/31 01:12:16;;;;;;;0.00;0.00;;;14.70;99.90;;;;;;5033283;28;20079;-79
2022/08/31 01:14:42;;;;;;;0.13;0.10;;;14.70;99.90;;;;;;5032953;28;20080;-79
2022/08/31 01:17:08;;;;;;;;;;;14.70;99.90;;;;;;5051143;28;20044;-73
2022/08/31 01:19:39;;;;;;;0.10;0.10;;;14.60;99.90;;;;;;5015994;28;19921;-73
2022/08/31 01:22:21;;;;;;;0.10;0.03;;;14.60;99.90;;;;;;5032241;28;20833;-73
2022/08/31 01:24:49;;;;;;;0.30;0.10;;;14.60;99.90;;;;;;5032252;28;20053;-73
2022/08/31 01:27:22;;;;;;;0.32;0.10;;;14.60;99.90;;;;;;5032743;28;20056;-73
2022/08/31 01:29:47;;;;;;;0.20;0.10;;;14.60;99.90;;;;;;5032488;28;20080;-73
2022/08/31 01:32:13;;;;;;;0.45;0.10;;;14.50;99.90;;;;;;5032213;28;20091;-78
2022/08/31 01:34:39;;;;;;;0.10;0.10;;;14.50;99.90;;;;;;5034040;28;20068;-73
2022/08/31 01:37:05;;;;;;;0.28;0.10;;;14.50;99.90;;;;;;5035543;28;20107;-72
2022/08/31 01:39:31;;;;;;;0.73;0.10;;;14.40;99.90;;;;;;5036134;28;20083;-72
2022/08/31 01:41:56;;;;;;;0.05;0.03;;;14.40;99.90;;;;;;5019995;28;20076;-78
2022/08/31 01:44:25;;;;;;;0.10;0.10;;;14.40;99.90;;;;;;5036111;28;20068;-72
2022/08/31 01:46:51;;;;;;;0.10;0.10;;;14.40;99.90;;;;;;5036452;28;20041;-79
2022/08/31 01:49:18;;;;;;;0.00;0.00;;;14.40;99.90;;;;;;5036292;28;20450;-79
2022/08/31 01:51:45;;;;;;;0.00;0.00;;;14.40;99.90;;;;;;5035910;28;20400;-73
2022/08/31 01:54:10;;;;;;;;;;;14.30;99.90;;;;;;5035927;28;20128;-73
2022/08/31 01:56:40;;;;;;;0.10;0.10;;;14.30;99.90;;;;;;5069406;28;20019;-79
2022/08/31 01:59:09;;;;;;;0.17;0.10;;;14.30;99.90;;;;;;5035876;28;20087;-77
2022/08/31 02:01:39;;;;;;;0.35;0.10;;;14.30;99.90;;;;;;5053423;28;20041;-72
2022/08/31 02:04:08;;;;;;;0.40;0.20;;;14.30;99.90;;;;;;5036004;28;20045;-78
2022/08/31 02:06:34;;;;;;;0.10;0.00;;;14.30;99.90;;;;;;5035629;28;20052;-72
2022/08/31 02:09:02;;;;;;;0.00;0.00;;;14.20;99.90;;;;;;5035421;28;20106;-72
2022/08/31 02:11:28;;;;;;;0.00;0.00;;;14.20;99.90;;;;;;5035736;28;20048;-73
2022/08/31 02:13:54;;;;;;;1.27;0.10;;;14.10;99.90;;;;;;5018684;28;20040;-73
2022/08/31 02:16:20;;;;;;;0.10;0.05;;;14.10;99.90;;;;;;5035699;28;20138;-73
2022/08/31 02:18:45;;;;;;;0.00;0.00;;;14.10;99.90;;;;;;5035094;28;20052;-73
2022/08/31 02:21:12;;;;;;;0.55;0.10;;;14.10;99.90;;;;;;5035019;28;20049;-73
2022/08/31 02:23:39;;;;;;;0.22;0.00;;;14.10;99.90;;;;;;5018348;28;20040;-72
2022/08/31 02:26:05;;;;;;;0.38;0.10;;;14.10;99.90;;;;;;5018993;28;20055;-78
2022/08/31 02:28:30;;;;;;;0.13;0.13;;;14.00;99.90;;;;;;5035142;28;20484;-78
2022/08/31 02:30:56;;;;;;;0.43;0.13;;;14.00;99.90;;;;;;5035184;28;20037;-77
2022/08/31 02:33:23;;;;;;;0.10;0.00;;;14.00;99.90;;;;;;5034958;28;20075;-77
2022/08/31 02:35:50;;;;;;;0.10;0.00;;;14.00;99.90;;;;;;5035200;28;20060;-78
2022/08/31 02:38:16;;;;;;;0.10;0.10;;;14.00;99.90;;;;;;5034876;28;20053;-72
2022/08/31 02:40:42;;;;;;;0.10;0.10;;;14.00;99.90;;;;;;5035209;28;20476;-72
2022/08/31 02:43:10;;;;;;;0.00;0.00;;;14.00;99.90;;;;;;5034788;28;20049;-72
2022/08/31 02:45:37;;;;;;;0.20;0.10;;;14.00;99.90;;;;;;5033972;28;20435;-79
2022/08/31 02:48:05;;;;;;;0.38;0.10;;;14.00;99.90;;;;;;5018515;28;20041;-78
2022/08/31 02:50:31;;;;;;;0.10;0.10;;;14.00;99.90;;;;;;5034857;28;20045;-78
2022/08/31 02:52:56;;;;;;;;;;;14.00;99.90;;;;;;5034833;28;20475;-72
2022/08/31 02:55:24;;;;;;;0.30;0.20;;;14.00;99.90;;;;;;5067730;28;19967;-79
2022/08/31 02:57:50;;;;;;;0.35;0.10;;;14.10;99.90;;;;;;5034610;28;20120;-79
2022/08/31 03:00:18;;;;;;;0.10;0.10;;;14.00;99.90;;;;;;5018061;28;20053;-72
2022/08/31 03:02:44;;;;;;;0.20;0.10;;;14.00;99.90;;;;;;5034268;28;20048;-73
2022/08/31 03:05:10;;;;;;;0.15;0.10;;;14.10;99.90;;;;;;5017995;28;20033;-73
2022/08/31 03:07:36;;;;;;;0.17;0.10;;;14.10;99.90;;;;;;5034503;28;20045;-79
2022/08/31 03:10:04;;;;;;;0.10;0.10;;;14.10;99.90;;;;;;5034550;28;20056;-79
2022/08/31 03:12:30;;;;;;;0.22;0.10;;;14.10;99.90;;;;;;5034312;28;20041;-78
2022/08/31 03:14:55;;;;;;;0.20;0.10;;;14.10;99.90;;;;;;5034039;28;20067;-78
2022/08/31 03:17:21;;;;;;;0.15;0.10;;;14.10;99.90;;;;;;5017947;28;20088;-72
2022/08/31 03:19:47;;;;;;;0.30;0.10;;;14.10;99.90;;;;;;5001337;28;20366;-73
2022/08/31 03:22:13;;;;;;;0.20;0.10;;;14.00;99.90;;;;;;5033930;28;20044;-73
2022/08/31 03:24:39;;;;;;;0.10;0.08;;;14.00;99.90;;;;;;5034435;28;20049;-78
2022/08/31 03:27:05;;;;;;;1.17;0.10;;;14.00;99.90;;;;;;5034468;28;20127;-79
2022/08/31 03:29:30;;;;;;;0.85;0.25;;;14.00;99.90;;;;;;5034392;28;20067;-78
2022/08/31 03:31:56;;;;;;;0.38;0.10;;;14.00;99.90;;;;;;5034185;28;20040;-78
2022/08/31 03:34:22;;;;;;;0.00;0.00;;;14.00;99.90;;;;;;5051539;28;20504;-72
2022/08/31 03:36:47;;;;;;;0.28;0.10;;;13.90;99.90;;;;;;5017315;28;20132;-79
2022/08/31 03:39:13;;;;;;;0.10;0.08;;;13.90;99.90;;;;;;5017132;28;20123;-72
2022/08/31 03:41:39;;;;;;;0.20;0.10;;;13.90;99.90;;;;;;5033476;28;20049;-78
2022/08/31 03:44:05;;;;;;;0.00;0.00;;;13.90;99.90;;;;;;5034266;28;20052;-78
2022/08/31 03:46:32;;;;;;;0.00;0.00;;;13.80;99.90;;;;;;5017446;28;20503;-78
2022/08/31 03:49:00;;;;;;;0.00;0.00;;;13.80;99.90;;;;;;5033852;28;20049;-79
2022/08/31 03:51:27;;;;;;;0.00;0.00;;;13.80;99.90;;;;;;5033866;28;20080;-79
2022/08/31 03:53:52;;;;;;;0.00;0.00;;;13.70;99.90;;;;;;5033793;28;20480;-79
2022/08/31 03:56:19;;;;;;;0.00;0.00;;;13.70;99.90;;;;;;5051423;28;20045;-73
2022/08/31 03:58:45;;;;;;;0.00;0.00;;;13.60;99.90;;;;;;5016618;28;20394;-73
2022/08/31 04:01:12;;;;;;;0.00;0.00;;;13.50;99.90;;;;;;5033608;28;20068;-73
2022/08/31 04:03:38;;;;;;;0.00;0.00;;;13.50;99.90;;;;;;5016802;28;20095;-73
2022/08/31 04:06:10;;;;;;;0.00;0.00;;;13.50;99.90;;;;;;5033483;28;20036;-73
2022/08/31 04:08:36;;;;;;;0.00;0.00;;;13.40;99.90;;;;;;5016938;28;20044;-79
2022/08/31 04:11:20;;;;;;;;;;;13.40;99.90;;;;;;5033898;28;20056;-79
2022/08/31 04:13:46;;;;;;;0.00;0.00;;;13.40;99.90;;;;;;5033380;28;19940;-79
2022/08/31 04:16:16;;;;;;;0.10;0.00;;;13.30;99.90;;;;;;5017362;28;20037;-79
2022/08/31 04:18:43;;;;;;;0.05;0.00;;;13.20;99.90;;;;;;5033784;28;20049;-79
2022/08/31 04:21:13;;;;;;;0.00;0.00;;;13.20;99.90;;;;;;5033423;28;20045;-77
2022/08/31 04:23:39;;;;;;;0.00;0.00;;;13.10;99.90;;;;;;5033426;28;20037;-78
2022/08/31 04:26:19;;;;;;;0.00;0.00;;;13.10;99.90;;;;;;5051199;28;20055;-78
2022/08/31 04:28:45;;;;;;;0.00;0.00;;;13.00;99.90;;;;;;5051174;28;20124;-72
2022/08/31 04:31:11;;;;;;;0.03;0.00;;;12.90;99.90;;;;;;5033231;28;20132;-78
2022/08/31 04:33:37;;;;;;;0.00;0.00;;;12.80;99.90;;;;;;5032716;28;20091;-78
2022/08/31 04:36:07;;;;;;;0.00;0.00;;;12.80;99.90;;;;;;5016323;28;20055;-72
2022/08/31 04:38:34;;;;;;;0.22;0.10;;;12.80;99.90;;;;;;5032636;28;20045;-72
2022/08/31 04:41:08;;;;;;;0.00;0.00;;;12.70;99.90;;;;;;5032782;28;20056;-78
2022/08/31 04:43:38;;;;;;;0.03;0.00;;;12.80;99.90;;;;;;5033113;28;20037;-78
2022/08/31 04:46:05;;;;;;;0.00;0.00;;;12.80;99.90;;;;;;5016410;28;20045;-79
2022/08/31 04:48:32;;;;;;;0.10;0.00;;;12.90;99.90;;;;;;5032979;28;20103;-78
2022/08/31 04:51:02;;;;;;;;;;;12.80;99.90;;;;;;5016716;28;20071;-72
2022/08/31 04:53:28;;;;;;;0.20;0.08;;;12.90;99.90;;;;;;5016480;28;19971;-72
2022/08/31 04:55:54;;;;;;;0.00;0.00;;;12.90;99.90;;;;;;5016577;28;20116;-72
2022/08/31 04:58:22;;;;;;;0.00;0.00;;;12.90;99.90;;;;;;5016311;28;20459;-78
2022/08/31 05:00:50;;;;;;;0.17;0.00;;;12.90;99.90;;;;;;5032783;28;20049;-73
2022/08/31 05:03:16;;;;;;;0.00;0.00;;;12.90;99.90;;;;;;5032715;28;20048;-72
2022/08/31 05:05:42;;;;;;;0.00;0.00;;;12.90;99.90;;;;;;5032523;28;20094;-78
2022/08/31 05:08:08;;;;;;;0.00;0.00;;;12.90;99.90;;;;;;5032361;28;20052;-72
2022/08/31 05:10:34;;;;;;;0.10;0.00;;;12.90;99.90;;;;;;5035805;28;20086;-71
2022/08/31 05:12:59;;;;;;;0.00;0.00;;;13.00;99.90;;;;;;5020205;28;20400;-79
2022/08/31 05:15:26;;;;;;;0.00;0.00;;;13.00;99.90;;;;;;5036165;28;20573;-73
2022/08/31 05:17:52;;;;;;;0.08;0.00;;;13.00;99.90;;;;;;5036211;28;20132;-73
2022/08/31 05:20:17;;;;;;;0.00;0.00;;;13.10;99.90;;;;;;5036481;28;20560;-72
2022/08/31 05:22:43;;;;;;;0.00;0.00;;;13.10;99.90;;;;;;5036233;28;20484;-78
2022/08/31 05:25:09;;;;;;;0.00;0.00;;;13.10;99.90;;;;;;5036349;28;20477;-78
2022/08/31 05:27:35;;;;;;;0.00;0.00;;;13.20;99.90;;;;;;5036288;28;20052;-78
2022/08/31 05:30:01;;;;;;;0.00;0.00;;;13.20;99.90;;;;;;5036679;28;20053;-78
2022/08/31 05:32:27;;;;;;;0.00;0.00;;;13.30;99.90;;;;;;5036294;28;20492;-78
2022/08/31 05:34:52;;;;;;;0.03;0.00;;;13.30;99.90;;;;;;5035897;28;20104;-78
2022/08/31 05:37:18;;;;;;;0.15;0.10;;;13.40;99.90;;;;;;5035834;28;20066;-78
2022/08/31 05:39:44;;;;;;;0.10;0.10;;;13.50;99.90;;;;;;5019645;28;20080;-72
2022/08/31 05:42:14;;;;;;;0.25;0.20;;;13.60;99.90;;;;;;5035643;28;20492;-72
2022/08/31 05:44:40;;;;;;;0.03;0.03;;;13.70;99.90;;;;;;5019957;28;20045;-72
2022/08/31 05:47:05;;;;;;;;;;;13.70;99.90;;;;;;5036315;28;20071;-72
2022/08/31 05:49:32;;;;;;;0.10;0.10;;;13.80;99.90;;;;;;5035727;28;20375;-73
2022/08/31 05:51:59;;;;;;;0.20;0.20;;;13.80;99.90;;;;;;5035566;28;20064;-71
2022/08/31 05:54:26;;;;;;;0.10;0.10;;;13.90;99.90;;;;;;5035363;28;20602;-77
2022/08/31 05:56:51;;;;;;;;;;;14.00;99.90;;;;;;5035816;28;20052;-72
2022/08/31 05:59:17;;;;;;;0.20;0.10;;;14.00;99.90;;;;;;5035796;28;19917;-72
2022/08/31 06:01:43;;;;;;;0.10;0.10;;;14.10;99.90;;;;;;5035642;28;20492;-79
2022/08/31 06:04:09;;;;;;;0.10;0.10;;;14.10;99.90;;;;;;5053427;28;20063;-78
2022/08/31 06:06:35;;;;;;;0.10;0.10;;;14.20;99.90;;;;;;5035291;28;20044;-72
2022/08/31 06:09:01;;;;;;;0.45;0.30;;;14.30;99.90;;;;;;5035448;28;20041;-72
2022/08/31 06:11:29;;;;;;;0.20;0.20;;;14.30;99.90;;;;;;5035060;28;20048;-77
2022/08/31 06:13:58;;;;;;;0.30;0.15;;;14.40;99.90;;;;;;5035106;28;20040;-72
2022/08/31 06:16:24;;;;;;;0.38;0.30;;;14.40;99.90;;;;;;5035097;28;20511;-72
2022/08/31 06:18:52;;;;;;;0.10;0.10;;;14.50;99.90;;;;;;5035302;28;20447;-72
2022/08/31 06:21:20;;;;;;;0.35;0.25;;;14.60;99.90;;;;;;5034863;28;20120;-72
2022/08/31 06:23:48;;;;;;;0.20;0.20;;;14.70;99.90;;;;;;5018433;28;20477;-72
2022/08/31 06:26:16;;;;;;;0.20;0.20;;;14.80;99.90;;;;;;5034935;28;20051;-71
2022/08/31 06:28:47;;;;;;;0.50;0.20;;;15.10;99.90;;;;;;5035140;28;20496;-72
2022/08/31 06:31:36;;;;;;;0.43;0.20;;;15.70;99.90;;;;;;5018370;28;20045;-72
2022/08/31 06:34:03;;;;;;;1.35;0.10;;;16.60;99.90;;;;;;5031288;28;20513;-72
2022/08/31 06:36:30;;;;;;;0.20;0.13;;;17.20;99.90;;;;;;5031387;28;20092;-78
2022/08/31 06:38:58;;;;;;;0.10;0.10;;;17.60;99.90;;;;;;5031812;28;20064;-78
2022/08/31 06:41:33;;;;;;;0.20;0.10;;;18.00;99.90;;;;;;5031397;28;20041;-79
2022/08/31 06:44:00;;;;;;;0.10;0.10;;;18.40;99.90;;;;;;5031555;28;20045;-78
2022/08/31 06:46:27;;;;;;;0.20;0.20;;;18.60;99.80;;;;;;5031845;28;20049;-78
2022/08/31 06:48:55;;;;;;;0.45;0.10;;;18.90;99.00;;;;;;5031389;28;20033;-78
2022/08/31 06:51:21;;;;;;;0.35;0.20;;;19.00;98.70;;;;;;5031239;28;20077;-79
2022/08/31 06:53:47;;;;;;;0.55;0.15;;;19.10;98.20;;;;;;5031296;28;20073;-72
2022/08/31 06:56:18;;;;;;;0.40;0.30;;;19.20;98.20;;;;;;5031178;28;20466;-72
2022/08/31 06:58:44;;;;;;;0.77;0.10;;;19.30;97.60;;;;;;5030918;28;20507;-72
2022/08/31 07:01:16;;;;;;;0.63;0.20;;;19.50;97.50;;;;;;5032252;28;20128;-72
2022/08/31 07:03:43;;;;;;;0.28;0.28;;;19.70;97.50;;;;;;5031253;28;20743;-73
2022/08/31 07:06:19;;;;;;;0.38;0.20;;;19.60;97.20;;;;;;5014369;28;20045;-79
2022/08/31 07:08:47;;;;;;;0.20;0.10;;;19.90;96.90;;;;;;5030909;28;20129;-73
2022/08/31 07:11:19;;;;;;;0.52;0.20;;;20.10;97.00;;;;;;5031094;28;20393;-79
2022/08/31 07:13:46;;;;;;;0.15;0.10;;;20.00;97.10;;;;;;5014450;28;20116;-79
2022/08/31 07:16:14;;;;;;;0.40;0.20;;;20.00;96.40;;;;;;5030958;28;20408;-73
2022/08/31 07:18:40;;;;;;;0.95;0.30;;;20.10;96.70;;;;;;5014621;28;20374;-79
2022/08/31 07:21:19;;;;;;;0.40;0.25;;;20.20;96.90;;;;;;5030913;28;20077;-79
2022/08/31 07:23:47;;;;;;;0.20;0.13;;;20.20;96.50;;;;;;5030481;28;20461;-79
2022/08/31 07:26:16;;;;;;;0.28;0.20;;;20.40;96.40;;;;;;5030604;28;20077;-73
2022/08/31 07:28:42;;;;;;;0.20;0.20;;;20.50;96.80;;;;;;5014249;28;20076;-80
2022/08/31 07:31:10;;;;;;;0.82;0.40;;;20.50;95.70;;;;;;5030364;28;20037;-79
2022/08/31 07:33:39;;;;;;;0.20;0.20;;;20.50;96.00;;;;;;5034689;28;20111;-73
2022/08/31 07:36:11;;;;;;;0.50;0.20;;;20.70;96.20;;;;;;5033902;28;20432;-80
2022/08/31 07:44:09;;;;;;;0.25;0.15;;;20.70;95.30;;;;;;5033368;28;20063;-73
2022/08/31 07:46:35;;;;;;;0.45;0.20;;;20.70;95.90;;;;;;5033491;28;20048;-74
2022/08/31 07:49:02;;;;;;;0.55;0.40;;;20.90;95.50;;;;;;5033721;28;20037;-79
2022/08/31 07:51:27;;;;;;;0.30;0.20;;;20.80;95.70;;;;;;5016972;28;20041;-79
2022/08/31 07:53:54;;;;;;;0.20;0.17;;;21.00;95.20;;;;;;5033383;28;20174;-79
2022/08/31 07:56:22;;;;;;;0.10;0.10;;;21.00;94.90;;;;;;5033291;28;20115;-79
2022/08/31 07:58:48;;;;;;;0.30;0.25;;;20.90;94.90;;;;;;5033519;28;20056;-72
2022/08/31 08:01:16;;;;;;;0.17;0.13;;;20.80;95.80;;;;;;5051261;28;20485;-72
2022/08/31 08:03:43;;;;;;;0.30;0.20;;;20.70;95.10;;;;;;5033124;28;20072;-72
2022/08/31 08:06:16;;;;;;;0.13;0.10;;;20.60;95.50;;;;;;5032857;28;20049;-78
2022/08/31 08:08:43;;;;;;;0.10;0.10;;;20.80;95.40;;;;;;5033126;28;20091;-73
2022/08/31 08:11:20;;;;;;;1.02;0.20;;;20.90;95.60;;;;;;5033044;28;20095;-80
2022/08/31 08:13:47;;;;;;;0.10;0.10;;;20.90;95.00;;;;;;5033148;28;20051;-73
2022/08/31 08:16:13;;;;;;;0.20;0.20;;;20.90;94.90;;;;;;5033448;28;20128;-79
2022/08/31 08:18:39;;;;;;;0.40;0.20;;;20.90;95.40;;;;;;5033073;28;20045;-79
2022/08/31 08:21:05;;;;;;;0.40;0.20;;;21.00;95.20;;;;;;5051007;28;20036;-73
2022/08/31 08:23:31;;;;;;;0.15;0.15;;;21.00;95.00;;;;;;5016566;28;20041;-80
2022/08/31 08:26:00;;;;;;;0.22;0.10;;;21.00;95.00;;;;;;5032933;28;20055;-80
2022/08/31 08:28:30;;;;;;;0.60;0.10;;;20.90;94.90;;;;;;5016791;28;20049;-79
2022/08/31 08:31:00;;;;;;;0.30;0.20;;;20.90;95.10;;;;;;5032810;28;20045;-80
2022/08/31 08:33:27;;;;;;;0.05;0.05;;;21.00;95.10;;;;;;5033420;28;20048;-79
2022/08/31 08:36:01;;;;;;;0.35;0.20;;;21.20;95.40;;;;;;5050925;28;20064;-73
2022/08/31 08:38:32;;;;;;;0.68;0.20;;;21.20;94.90;;;;;;5032692;28;20057;-73
2022/08/31 08:41:05;;;;;;;0.50;0.28;;;21.30;95.30;;;;;;5032718;28;20052;-79
2022/08/31 08:43:38;;;;;;;0.13;0.10;;;21.40;95.00;;;;;;5032451;28;20456;-79
2022/08/31 08:46:07;;;;;;;0.00;0.00;;;21.50;95.10;;;;;;5036946;28;20472;-80
2022/08/31 08:48:38;;;;;;;0.47;0.15;;;21.50;95.40;;;;;;5036993;28;20045;-80
2022/08/31 08:51:13;;;;;;;0.40;0.20;;;21.60;95.10;;;;;;5037043;28;20087;-79
2022/08/31 08:53:41;;;;;;;0.10;0.10;;;21.70;95.00;;;;;;5037079;28;20080;-80
2022/08/31 08:56:10;;;;;;;0.17;0.10;;;21.80;94.90;;;;;;5020343;28;20383;-79
2022/08/31 08:58:41;;;;;;;0.60;0.20;;;21.80;94.80;;;;;;5036676;28;20049;-73
2022/08/31 09:01:10;;;;;;;0.25;0.20;;;21.90;94.80;;;;;;5036291;28;20040;-73
2022/08/31 09:03:54;;;;;;;0.10;0.10;;;22.00;94.50;;;;;;5020517;28;20579;-79
2022/08/31 09:06:45;;;;;;;0.20;0.10;;;22.20;94.80;;;;;;5036606;28;20037;-74
2022/08/31 09:09:53;;;;;;;0.70;0.25;;;22.40;94.80;;;;;;5036458;28;20040;-74
2022/08/31 09:12:47;;;;;;;1.50;0.28;;;22.40;93.90;;;;;;5036338;28;20045;-73
2022/08/31 09:15:39;;;;;;;0.68;0.30;;;22.30;94.10;;;;;;5036295;28;20037;-73
2022/08/31 09:19:02;;;;;;;0.75;0.50;;;22.30;93.90;;;;;;5054251;28;20480;-81
2022/08/31 09:21:33;;;;;;;1.15;0.40;;;22.20;94.00;;;;;;4957282;28;20047;-80
2022/08/31 09:24:03;;;;;;;0.38;0.30;;;22.20;93.70;;;;;;4956951;28;20046;-73
2022/08/31 09:26:34;;;;;;;0.45;0.30;;;22.30;93.90;;;;;;4998463;28;20049;-73
2022/08/31 09:29:02;;;;;;;0.52;0.35;;;22.40;93.50;;;;;;5019483;28;20054;-73
2022/08/31 09:31:40;;;;;;;0.45;0.20;;;22.50;93.30;;;;;;5036107;28;20102;-73
2022/08/31 09:34:12;;;;;;;0.75;0.30;;;22.60;93.20;;;;;;5035965;28;20089;-73
2022/08/31 09:36:42;;;;;;;0.70;0.20;;;22.60;92.90;;;;;;5035974;28;20057;-80
2022/08/31 09:39:16;;;;;;;0.40;0.20;;;22.70;93.20;;;;;;5036494;28;20171;-81
2022/08/31 09:41:43;;;;;;;0.52;0.10;;;22.70;93.20;;;;;;5019232;28;20504;-74
2022/08/31 09:44:34;;;;;;;0.10;0.10;;;22.90;92.70;;;;;;5035652;28;20040;-74
2022/08/31 09:47:04;;;;;;;0.20;0.20;;;22.90;93.00;;;;;;5035713;28;20092;-72
2022/08/31 09:49:39;;;;;;;0.20;0.20;;;23.00;93.20;;;;;;5019811;28;20041;-72
2022/08/31 09:55:11;;;;;;;0.20;0.20;;;22.60;92.20;;;;;;5035610;28;20053;-72
2022/08/31 09:55:13;;;;;;;1.27;0.20;;;22.50;92.60;;;;;;5035170;28;20530;-79
2022/08/31 09:57:48;;;;;;;0.30;0.10;;;22.70;92.80;;;;;;5035885;28;20400;-80
2022/08/31 10:00:15;;;;;;;0.10;0.10;;;22.80;92.90;;;;;;5035486;28;20052;-80
2022/08/31 10:02:42;;;;;;;0.63;0.30;;;23.20;93.10;;;;;;5035818;28;20049;-73
2022/08/31 10:05:39;;;;;;;0.55;0.30;;;22.90;92.70;;;;;;5035524;28;20447;-79
2022/08/31 10:08:32;;;;;;;0.35;0.20;;;22.80;93.00;;;;;;5035201;28;20120;-79
2022/08/31 10:11:05;;;;;;;0.20;0.10;;;23.00;92.50;;;;;;5035445;28;20124;-73
2022/08/31 10:13:38;;;;;;;1.30;0.30;;;23.10;93.10;;;;;;5035353;28;20048;-80
2022/08/31 10:16:15;;;;;;;0.32;0.20;;;23.10;92.70;;;;;;5035149;28;20041;-80
2022/08/31 10:18:57;;;;;;;0.10;0.10;;;23.20;92.50;;;;;;5035125;28;20053;-80
2022/08/31 10:22:01;;;;;;;0.43;0.10;;;23.10;92.80;;;;;;5035295;28;20055;-73
2022/08/31 10:24:54;;;;;;;0.20;0.17;;;23.00;93.10;;;;;;5035432;28;20045;-73
2022/08/31 10:27:31;;;;;;;0.28;0.10;;;22.40;92.30;;;;;;5032723;28;20061;-80
2022/08/31 10:30:19;;;;;;;0.65;0.15;;;22.20;93.00;;;;;;5018594;28;20083;-73
2022/08/31 10:33:18;;;;;;;0.22;0.20;;;22.20;93.50;;;;;;5035177;28;20128;-81
2022/08/31 10:35:53;;;;;;;0.20;0.10;;;22.20;93.60;;;;;;5034776;28;20057;-73
2022/08/31 10:38:36;;;;;;;0.10;0.10;;;22.10;93.80;;;;;;5034745;28;20081;-73
2022/08/31 10:41:29;;;;;;;0.40;0.30;;;22.30;93.90;;;;;;5034884;28;20248;-73
2022/08/31 10:44:25;;;;;;;0.10;0.10;;;22.60;93.20;;;;;;5034906;28;20041;-80
2022/08/31 10:46:57;;;;;;;0.10;0.08;;;22.90;93.40;;;;;;5018584;28;20045;-80
2022/08/31 10:49:24;;;;;;;0.30;0.20;;;23.40;92.90;;;;;;5035023;28;20056;-81
2022/08/31 10:52:09;;;;;;;0.13;0.13;;;23.40;91.80;;;;;;5018283;28;20044;-81
2022/08/31 10:54:56;;;;;;;0.60;0.40;;;23.50;91.60;;;;;;5034699;28;20053;-73
2022/08/31 10:57:48;;;;;;;0.17;0.10;;;23.50;92.00;;;;;;5034802;28;20392;-82
2022/08/31 11:03:27;;;;;;;0.90;0.20;;;23.90;92.00;;;;;;5034525;28;20114;-79
2022/08/31 11:05:59;;;;;;;0.10;0.10;;;24.20;91.70;;;;;;5034560;28;20095;-74
2022/08/31 11:08:28;;;;;;;0.32;0.17;;;24.40;91.70;;;;;;5033574;28;20072;-74
2022/08/31 11:10:56;;;;;;;0.10;0.10;;;24.40;90.70;;;;;;5034175;28;20044;-74
2022/08/31 11:13:59;;;;;;;0.30;0.10;;;24.60;91.30;;;;;;5034202;28;20053;-81
2022/08/31 11:16:37;;;;;;;0.20;0.17;;;24.50;90.80;;;;;;5034480;28;20049;-79
2022/08/31 11:19:27;;;;;;;0.30;0.20;;;24.40;91.20;;;;;;5017789;28;20037;-80
2022/08/31 11:22:15;;;;;;;0.40;0.20;;;24.30;91.10;;;;;;5017938;28;20040;-80
2022/08/31 11:25:12;;;;;;;0.10;0.10;;;23.80;91.60;;;;;;5034153;28;20123;-73
2022/08/31 11:28:08;;;;;;;0.40;0.22;;;24.20;91.90;;;;;;5017328;28;20488;-80
2022/08/31 11:30:40;;;;;;;0.50;0.10;;;24.30;91.20;;;;;;5033533;28;20053;-73
2022/08/31 11:33:18;;;;;;;0.50;0.20;;;24.50;91.10;;;;;;5033738;28;20500;-72
2022/08/31 11:35:56;;;;;;;0.20;0.20;;;24.50;91.00;;;;;;5033899;28;20131;-73
2022/08/31 11:38:50;;;;;;;1.00;0.32;;;24.60;90.50;;;;;;5033771;28;20477;-78
2022/08/31 11:41:35;;;;;;;0.40;0.20;;;24.90;90.60;;;;;;5033879;28;20111;-80
2022/08/31 11:44:03;;;;;;;0.52;0.20;;;25.00;90.30;;;;;;5017223;28;20040;-74
2022/08/31 11:46:32;;;;;;;0.15;0.15;;;25.00;90.00;;;;;;5051790;28;20037;-81
2022/08/31 11:48:58;;;;;;;0.25;0.20;;;25.10;90.10;;;;;;5017308;28;20056;-80
2022/08/31 11:51:34;;;;;;;0.30;0.20;;;25.00;89.50;;;;;;5033648;28;20497;-80
2022/08/31 11:54:03;;;;;;;0.17;0.10;;;25.10;89.60;;;;;;5033723;28;20117;-73
2022/08/31 11:56:38;;;;;;;0.30;0.20;;;25.20;90.00;;;;;;5017102;28;20040;-80
2022/08/31 11:59:28;;;;;;;0.35;0.20;;;25.30;89.80;;;;;;5033687;28;20048;-81
2022/08/31 12:01:58;;;;;;;0.25;0.20;;;24.80;88.80;;;;;;5017538;28;20091;-73
2022/08/31 12:04:40;;;;;;;0.20;0.20;;;24.80;90.00;;;;;;5033790;28;20106;-81
2022/08/31 12:07:11;;;;;;;0.30;0.10;;;24.80;88.90;;;;;;5033245;28;20053;-81
2022/08/31 12:10:01;;;;;;;0.25;0.22;;;24.90;88.90;;;;;;5033558;28;20119;-80
2022/08/31 12:13:02;;;;;;;0.30;0.28;;;24.90;89.70;;;;;;5016890;28;20476;-74
2022/08/31 12:16:05;;;;;;;0.43;0.20;;;24.90;89.30;;;;;;5033284;28;20056;-74
2022/08/31 12:18:53;;;;;;;0.20;0.17;;;25.10;89.60;;;;;;5016381;28;20067;-74
2022/08/31 12:25:24;;;;;;;0.50;0.30;;;25.60;88.70;;;;;;5033142;28;20053;-81
2022/08/31 12:28:06;;;;;;;0.10;0.10;;;25.40;88.50;;;;;;4954182;28;20399;-80
2022/08/31 12:30:32;;;;;;;0.63;0.20;;;25.50;88.70;;;;;;5051115;28;20037;-80
2022/08/31 12:33:11;;;;;;;0.20;0.15;;;25.50;88.50;;;;;;5033508;28;20095;-74
2022/08/31 12:35:37;;;;;;;0.10;0.10;;;25.60;88.40;;;;;;5032747;28;20060;-82
2022/08/31 12:38:09;;;;;;;0.20;0.10;;;25.60;88.00;;;;;;5032925;28;20045;-81
2022/08/31 12:40:53;;;;;;;0.35;0.10;;;25.80;88.20;;;;;;5033032;28;20527;-81
2022/08/31 12:43:19;;;;;;;0.20;0.10;;;26.00;88.80;;;;;;5033173;28;20037;-81
2022/08/31 12:46:03;;;;;;;0.30;0.10;;;26.20;88.10;;;;;;5033113;28;20087;-82
2022/08/31 12:48:31;;;;;;;0.10;0.10;;;26.20;86.10;;;;;;5032871;28;20053;-74
2022/08/31 12:51:27;;;;;;;0.95;0.22;;;26.00;87.80;;;;;;5032845;28;20107;-73
2022/08/31 12:53:58;;;;;;;0.28;0.20;;;26.20;88.60;;;;;;5032525;28;20507;-74
2022/08/31 12:56:27;;;;;;;0.20;0.10;;;26.20;86.10;;;;;;5032785;28;20045;-81
2022/08/31 12:59:01;;;;;;;0.38;0.20;;;26.20;85.80;;;;;;5032846;28;20134;-73
2022/08/31 13:01:28;;;;;;;0.30;0.20;;;25.90;86.10;;;;;;5032777;28;20128;-73
2022/08/31 13:03:58;;;;;;;0.20;0.20;;;26.10;88.50;;;;;;5032491;28;20056;-80
2022/08/31 13:06:23;;;;;;;0.30;0.20;;;25.90;87.80;;;;;;5032428;28;20063;-80
2022/08/31 13:08:50;;;;;;;0.20;0.10;;;25.90;86.30;;;;;;5016108;28;20044;-81
2022/08/31 13:11:27;;;;;;;0.38;0.20;;;25.80;85.90;;;;;;5032573;28;20040;-81
2022/08/31 13:14:06;;;;;;;1.88;0.20;;;25.60;87.10;;;;;;5033110;28;20048;-81
2022/08/31 13:16:32;;;;;;;0.50;0.30;;;25.70;87.20;;;;;;5032697;28;20033;-80
2022/08/31 13:19:04;;;;;;;0.50;0.40;;;25.50;86.90;;;;;;5032777;28;20500;-82
2022/08/31 13:21:31;;;;;;;0.55;0.30;;;25.50;86.90;;;;;;5032498;28;20056;-81
2022/08/31 13:24:09;;;;;;;0.20;0.20;;;25.70;88.00;;;;;;5016153;28;20063;-81
2022/08/31 13:26:37;;;;;;;0.55;0.20;;;25.90;87.40;;;;;;5032573;28;20033;-82